Bloomington, IL

1:49 AM CDT on August 28, 2015 (GMT -0500)
Across from IWU | | Change Station
CLOSE
Current Station
Personal Weather Station
Location: Bloomington, IL
Elevation: 810 ft
Nearby Weather Stations

Elev 810 ft 40.49 °N, 88.99 °W | Updated 5 minutes ago

Clear
Clear
65.3 °F
Feels Like 65.3 °F
N
2.0
Wind Variable Wind from ESE
Gusts 8.0 mph

Today
High -- | Low -- °F
--% Chance of Precip.
Yesterday
High -- | Low -- °F
Precip. -- in
6:19 AM 7:34 PM
Waxing Gibbous, 97% visible
Pressure 30.12 in
Visibility 10.0 miles
Clouds Clear
Dew Point 60 °F
Humidity 83%
Rainfall 0.00 in
Snow Depth Not available.
UV 0 out of 12
Pollen 9.90 out of 12
Air Quality Not available.
Flu Activity Not available.
METAR KBMI 280556Z AUTO 13006KT 10SM CLR 16/14 A3014 RMK AO2 51002 60000 T01550138 10227 20144 402500111 SLP198
Pressure 30.12 in
Visibility 10.0 miles
Clouds Clear
Dew Point 60 °F
Humidity 83%
Rainfall 0.00 in
Snow Depth Not available.
UV 0 out of 12
Pollen 9.90 out of 12
Air Quality Not available.
Flu Activity Not available.
METAR KBMI 280556Z AUTO 13006KT 10SM CLR 16/14 A3014 RMK AO2 51002 60000 T01550138 10227 20144 402500111 SLP198

10-Day Weather Forecast

×

Almanac

Astronomy

Aug. 28, 2015 Rise Set
Actual Time
Civil Twilight
Nautical Twilight
Astronomical Twilight
Moon
Length of Visible Light
Length of Day
Tomorrow will be .
, % of the Moon is Illuminated

Today's Extremes

State Highs State Lows

Community

WunderPhotos

Upload Photos

1,850,341 photos uploaded!

WunderBlogs® & News

Nearby

Air Quality

  Air Quality AQ Index Pollutant
Not available.

Snow Depth

Station Depth Elevation

Earthquake Activity

City Distance Mag. Time & Date
Minimum magnitude displayed is 2.5.

Coastal Water Temperatures

Place Temperature

Stations

Nearby Weather Stations

Station Location Temp. Windchill Dew Point Humidity Wind Precip. Elev Updated Type